sensor_id;sensor_type;location;lat;lon;timestamp;P1;durP1;ratioP1;P2;durP2;ratioP2
70414;SDS011;57837;52.064;113.478;2023-03-11T00:02:58;11.82;;;2.60;;
70414;SDS011;57837;52.064;113.478;2023-03-11T00:06:02;5.82;;;2.75;;
70414;SDS011;57837;52.064;113.478;2023-03-11T00:09:06;3.25;;;1.38;;
70414;SDS011;57837;52.064;113.478;2023-03-11T00:12:10;5.22;;;2.47;;
70414;SDS011;57837;52.064;113.478;2023-03-11T00:15:13;6.67;;;3.00;;
70414;SDS011;57837;52.064;113.478;2023-03-11T00:18:16;2.35;;;1.35;;
70414;SDS011;57837;52.064;113.478;2023-03-11T00:21:19;12.05;;;3.28;;
70414;SDS011;57837;52.064;113.478;2023-03-11T00:24:23;6.77;;;2.47;;
70414;SDS011;57837;52.064;113.478;2023-03-11T00:27:26;4.55;;;1.90;;
70414;SDS011;57837;52.064;113.478;2023-03-11T00:30:30;10.52;;;2.55;;
70414;SDS011;57837;52.064;113.478;2023-03-11T00:33:34;10.57;;;3.00;;
70414;SDS011;57837;52.064;113.478;2023-03-11T00:36:39;7.65;;;2.78;;
70414;SDS011;57837;52.064;113.478;2023-03-11T00:39:42;8.10;;;3.15;;
70414;SDS011;57837;52.064;113.478;2023-03-11T00:42:46;9.25;;;3.60;;
70414;SDS011;57837;52.064;113.478;2023-03-11T00:45:50;4.97;;;1.87;;
70414;SDS011;57837;52.064;113.478;2023-03-11T00:48:54;11.38;;;4.13;;
70414;SDS011;57837;52.064;113.478;2023-03-11T00:51:58;2.55;;;1.45;;
70414;SDS011;57837;52.064;113.478;2023-03-11T00:55:03;3.17;;;1.93;;
70414;SDS011;57837;52.064;113.478;2023-03-11T00:58:09;8.05;;;2.20;;
70414;SDS011;57837;52.064;113.478;2023-03-11T01:01:27;9.50;;;2.78;;
70414;SDS011;57837;52.064;113.478;2023-03-11T01:04:31;16.60;;;2.60;;
70414;SDS011;57837;52.064;113.478;2023-03-11T01:07:34;10.75;;;2.58;;
70414;SDS011;57837;52.064;113.478;2023-03-11T01:10:37;13.27;;;2.90;;
70414;SDS011;57837;52.064;113.478;2023-03-11T01:13:41;9.85;;;3.42;;
70414;SDS011;57837;52.064;113.478;2023-03-11T01:16:44;19.10;;;2.63;;
70414;SDS011;57837;52.064;113.478;2023-03-11T01:19:49;11.32;;;2.83;;
70414;SDS011;57837;52.064;113.478;2023-03-11T01:22:53;6.97;;;2.35;;
70414;SDS011;57837;52.064;113.478;2023-03-11T01:25:57;4.50;;;1.55;;
70414;SDS011;57837;52.064;113.478;2023-03-11T01:29:01;7.83;;;2.87;;
70414;SDS011;57837;52.064;113.478;2023-03-11T01:32:06;15.48;;;2.60;;
70414;SDS011;57837;52.064;113.478;2023-03-11T01:35:11;13.45;;;2.45;;
70414;SDS011;57837;52.064;113.478;2023-03-11T01:38:17;9.82;;;2.75;;
70414;SDS011;57837;52.064;113.478;2023-03-11T01:41:21;17.53;;;2.60;;
70414;SDS011;57837;52.064;113.478;2023-03-11T01:44:25;7.10;;;1.95;;
70414;SDS011;57837;52.064;113.478;2023-03-11T01:47:33;9.25;;;2.55;;
70414;SDS011;57837;52.064;113.478;2023-03-11T01:50:43;8.43;;;2.38;;
70414;SDS011;57837;52.064;113.478;2023-03-11T01:53:50;8.27;;;2.03;;
70414;SDS011;57837;52.064;113.478;2023-03-11T01:56:56;7.15;;;2.13;;
70414;SDS011;57837;52.064;113.478;2023-03-11T02:00:03;21.05;;;2.85;;
70414;SDS011;57837;52.064;113.478;2023-03-11T02:03:18;8.45;;;1.67;;
70414;SDS011;57837;52.064;113.478;2023-03-11T02:06:27;6.80;;;2.47;;
70414;SDS011;57837;52.064;113.478;2023-03-11T02:09:31;18.08;;;2.78;;
70414;SDS011;57837;52.064;113.478;2023-03-11T02:12:35;6.57;;;3.20;;
70414;SDS011;57837;52.064;113.478;2023-03-11T02:15:40;8.37;;;2.13;;
70414;SDS011;57837;52.064;113.478;2023-03-11T02:18:44;8.65;;;1.38;;
70414;SDS011;57837;52.064;113.478;2023-03-11T02:21:48;3.97;;;1.90;;
70414;SDS011;57837;52.064;113.478;2023-03-11T02:24:58;7.85;;;1.48;;
70414;SDS011;57837;52.064;113.478;2023-03-11T02:28:06;7.07;;;1.87;;
70414;SDS011;57837;52.064;113.478;2023-03-11T02:31:13;31.00;;;1.65;;
70414;SDS011;57837;52.064;113.478;2023-03-11T02:34:22;6.38;;;1.52;;
70414;SDS011;57837;52.064;113.478;2023-03-11T02:37:27;6.63;;;1.65;;
70414;SDS011;57837;52.064;113.478;2023-03-11T02:40:39;9.82;;;1.70;;
70414;SDS011;57837;52.064;113.478;2023-03-11T02:43:53;11.18;;;3.05;;
70414;SDS011;57837;52.064;113.478;2023-03-11T02:46:58;35.08;;;3.67;;
70414;SDS011;57837;52.064;113.478;2023-03-11T02:50:04;18.37;;;1.77;;
70414;SDS011;57837;52.064;113.478;2023-03-11T02:53:09;17.23;;;2.03;;
70414;SDS011;57837;52.064;113.478;2023-03-11T02:56:14;8.27;;;2.03;;
70414;SDS011;57837;52.064;113.478;2023-03-11T02:59:18;4.93;;;1.73;;
70414;SDS011;57837;52.064;113.478;2023-03-11T03:02:22;6.22;;;2.17;;
70414;SDS011;57837;52.064;113.478;2023-03-11T03:05:26;15.25;;;2.78;;
70414;SDS011;57837;52.064;113.478;2023-03-11T03:08:32;7.38;;;1.80;;
70414;SDS011;57837;52.064;113.478;2023-03-11T03:11:36;3.47;;;1.13;;
70414;SDS011;57837;52.064;113.478;2023-03-11T03:14:40;4.32;;;1.25;;
70414;SDS011;57837;52.064;113.478;2023-03-11T03:17:44;5.28;;;2.20;;
70414;SDS011;57837;52.064;113.478;2023-03-11T03:20:49;3.77;;;1.43;;
70414;SDS011;57837;52.064;113.478;2023-03-11T03:23:53;2.22;;;0.93;;
70414;SDS011;57837;52.064;113.478;2023-03-11T03:26:56;0.90;;;0.57;;
70414;SDS011;57837;52.064;113.478;2023-03-11T03:30:01;3.17;;;1.60;;
70414;SDS011;57837;52.064;113.478;2023-03-11T03:33:06;4.25;;;1.60;;
70414;SDS011;57837;52.064;113.478;2023-03-11T03:36:12;3.53;;;1.60;;
70414;SDS011;57837;52.064;113.478;2023-03-11T03:39:21;8.00;;;1.92;;
70414;SDS011;57837;52.064;113.478;2023-03-11T03:42:26;9.02;;;1.70;;
70414;SDS011;57837;52.064;113.478;2023-03-11T03:45:30;13.55;;;2.05;;
70414;SDS011;57837;52.064;113.478;2023-03-11T03:48:34;6.47;;;2.08;;
70414;SDS011;57837;52.064;113.478;2023-03-11T03:51:40;7.80;;;2.10;;
70414;SDS011;57837;52.064;113.478;2023-03-11T03:55:07;3.60;;;1.50;;
70414;SDS011;57837;52.064;113.478;2023-03-11T03:58:12;4.57;;;1.27;;
70414;SDS011;57837;52.064;113.478;2023-03-11T04:01:17;7.33;;;1.60;;
70414;SDS011;57837;52.064;113.478;2023-03-11T04:04:21;12.35;;;1.70;;
70414;SDS011;57837;52.064;113.478;2023-03-11T04:07:25;7.28;;;2.15;;
70414;SDS011;57837;52.064;113.478;2023-03-11T04:10:29;8.50;;;2.63;;
70414;SDS011;57837;52.064;113.478;2023-03-11T04:13:33;5.78;;;1.25;;
70414;SDS011;57837;52.064;113.478;2023-03-11T04:16:37;4.90;;;1.80;;
70414;SDS011;57837;52.064;113.478;2023-03-11T04:19:45;8.02;;;2.00;;
70414;SDS011;57837;52.064;113.478;2023-03-11T04:22:50;13.50;;;2.87;;
70414;SDS011;57837;52.064;113.478;2023-03-11T04:25:56;6.63;;;1.20;;
70414;SDS011;57837;52.064;113.478;2023-03-11T04:28:59;13.50;;;2.15;;
70414;SDS011;57837;52.064;113.478;2023-03-11T04:32:08;7.25;;;2.53;;
70414;SDS011;57837;52.064;113.478;2023-03-11T04:35:13;3.70;;;1.30;;
70414;SDS011;57837;52.064;113.478;2023-03-11T04:38:18;7.70;;;1.52;;
70414;SDS011;57837;52.064;113.478;2023-03-11T04:41:22;11.77;;;1.85;;
70414;SDS011;57837;52.064;113.478;2023-03-11T04:44:25;4.70;;;1.20;;
70414;SDS011;57837;52.064;113.478;2023-03-11T04:47:29;6.18;;;2.17;;
70414;SDS011;57837;52.064;113.478;2023-03-11T04:50:34;12.63;;;2.03;;
70414;SDS011;57837;52.064;113.478;2023-03-11T04:53:37;5.20;;;1.70;;
70414;SDS011;57837;52.064;113.478;2023-03-11T04:56:40;3.90;;;1.63;;
70414;SDS011;57837;52.064;113.478;2023-03-11T04:59:43;13.13;;;2.10;;
70414;SDS011;57837;52.064;113.478;2023-03-11T05:02:48;7.95;;;1.90;;
70414;SDS011;57837;52.064;113.478;2023-03-11T05:05:52;10.82;;;2.05;;
70414;SDS011;57837;52.064;113.478;2023-03-11T05:09:01;11.50;;;1.73;;
70414;SDS011;57837;52.064;113.478;2023-03-11T05:12:11;9.00;;;2.08;;
70414;SDS011;57837;52.064;113.478;2023-03-11T05:15:16;9.23;;;1.85;;
70414;SDS011;57837;52.064;113.478;2023-03-11T05:18:21;7.30;;;1.48;;
70414;SDS011;57837;52.064;113.478;2023-03-11T05:21:25;2.33;;;1.03;;
70414;SDS011;57837;52.064;113.478;2023-03-11T05:24:29;9.05;;;2.20;;
70414;SDS011;57837;52.064;113.478;2023-03-11T05:27:33;3.83;;;1.35;;
70414;SDS011;57837;52.064;113.478;2023-03-11T05:30:38;6.80;;;1.52;;
70414;SDS011;57837;52.064;113.478;2023-03-11T05:33:42;15.50;;;2.47;;
70414;SDS011;57837;52.064;113.478;2023-03-11T05:36:47;5.40;;;2.13;;
70414;SDS011;57837;52.064;113.478;2023-03-11T05:39:52;3.33;;;1.70;;
70414;SDS011;57837;52.064;113.478;2023-03-11T05:42:57;4.28;;;1.80;;
70414;SDS011;57837;52.064;113.478;2023-03-11T05:46:03;7.57;;;1.95;;
70414;SDS011;57837;52.064;113.478;2023-03-11T05:49:08;8.65;;;1.85;;
70414;SDS011;57837;52.064;113.478;2023-03-11T05:52:12;7.75;;;1.85;;
70414;SDS011;57837;52.064;113.478;2023-03-11T05:55:16;9.25;;;1.90;;
70414;SDS011;57837;52.064;113.478;2023-03-11T05:58:20;4.00;;;1.85;;
70414;SDS011;57837;52.064;113.478;2023-03-11T06:01:25;6.70;;;1.80;;
70414;SDS011;57837;52.064;113.478;2023-03-11T06:04:29;10.60;;;2.40;;
70414;SDS011;57837;52.064;113.478;2023-03-11T06:07:35;8.52;;;2.60;;
70414;SDS011;57837;52.064;113.478;2023-03-11T06:10:41;9.27;;;2.47;;
70414;SDS011;57837;52.064;113.478;2023-03-11T06:13:45;7.88;;;1.85;;
70414;SDS011;57837;52.064;113.478;2023-03-11T06:16:48;4.53;;;1.77;;
70414;SDS011;57837;52.064;113.478;2023-03-11T06:19:54;12.05;;;2.55;;
70414;SDS011;57837;52.064;113.478;2023-03-11T06:22:57;14.07;;;2.63;;
70414;SDS011;57837;52.064;113.478;2023-03-11T06:26:03;5.93;;;2.15;;
70414;SDS011;57837;52.064;113.478;2023-03-11T06:29:13;6.53;;;2.83;;
70414;SDS011;57837;52.064;113.478;2023-03-11T06:32:18;10.50;;;2.78;;
70414;SDS011;57837;52.064;113.478;2023-03-11T06:35:22;8.65;;;2.38;;
70414;SDS011;57837;52.064;113.478;2023-03-11T06:38:26;5.40;;;1.98;;
70414;SDS011;57837;52.064;113.478;2023-03-11T06:41:34;3.92;;;1.67;;
70414;SDS011;57837;52.064;113.478;2023-03-11T06:44:40;6.60;;;1.90;;
70414;SDS011;57837;52.064;113.478;2023-03-11T06:47:43;8.45;;;2.15;;
70414;SDS011;57837;52.064;113.478;2023-03-11T06:53:59;4.88;;;2.03;;
70414;SDS011;57837;52.064;113.478;2023-03-11T06:57:05;5.57;;;2.25;;
70414;SDS011;57837;52.064;113.478;2023-03-11T07:00:11;10.23;;;2.40;;
70414;SDS011;57837;52.064;113.478;2023-03-11T07:03:21;11.60;;;1.83;;
70414;SDS011;57837;52.064;113.478;2023-03-11T07:06:25;7.07;;;1.92;;
70414;SDS011;57837;52.064;113.478;2023-03-11T07:09:43;8.57;;;3.17;;
70414;SDS011;57837;52.064;113.478;2023-03-11T07:12:48;25.33;;;3.10;;
70414;SDS011;57837;52.064;113.478;2023-03-11T07:16:03;10.52;;;2.28;;
70414;SDS011;57837;52.064;113.478;2023-03-11T07:19:12;8.02;;;2.83;;
70414;SDS011;57837;52.064;113.478;2023-03-11T07:22:16;7.30;;;2.55;;
70414;SDS011;57837;52.064;113.478;2023-03-11T07:25:20;4.97;;;2.58;;
70414;SDS011;57837;52.064;113.478;2023-03-11T07:28:25;4.53;;;2.77;;
70414;SDS011;57837;52.064;113.478;2023-03-11T07:31:31;8.35;;;2.10;;
70414;SDS011;57837;52.064;113.478;2023-03-11T07:34:36;14.95;;;2.15;;
70414;SDS011;57837;52.064;113.478;2023-03-11T07:37:39;10.40;;;2.63;;
70414;SDS011;57837;52.064;113.478;2023-03-11T07:40:43;7.60;;;2.40;;
70414;SDS011;57837;52.064;113.478;2023-03-11T07:43:47;6.13;;;2.43;;
70414;SDS011;57837;52.064;113.478;2023-03-11T07:46:50;8.50;;;2.55;;
70414;SDS011;57837;52.064;113.478;2023-03-11T07:49:53;14.18;;;4.25;;
70414;SDS011;57837;52.064;113.478;2023-03-11T07:52:58;8.98;;;3.03;;
70414;SDS011;57837;52.064;113.478;2023-03-11T07:56:01;6.60;;;2.93;;
70414;SDS011;57837;52.064;113.478;2023-03-11T07:59:06;11.38;;;3.95;;
70414;SDS011;57837;52.064;113.478;2023-03-11T08:02:10;8.15;;;3.05;;
70414;SDS011;57837;52.064;113.478;2023-03-11T08:05:13;6.57;;;2.58;;
70414;SDS011;57837;52.064;113.478;2023-03-11T08:08:17;10.48;;;4.30;;
70414;SDS011;57837;52.064;113.478;2023-03-11T08:11:20;6.57;;;3.00;;
70414;SDS011;57837;52.064;113.478;2023-03-11T08:14:24;9.98;;;3.05;;
70414;SDS011;57837;52.064;113.478;2023-03-11T08:17:28;10.52;;;3.60;;
70414;SDS011;57837;52.064;113.478;2023-03-11T08:20:32;8.63;;;3.20;;
70414;SDS011;57837;52.064;113.478;2023-03-11T08:23:36;8.87;;;2.30;;
70414;SDS011;57837;52.064;113.478;2023-03-11T08:26:40;4.18;;;1.98;;
70414;SDS011;57837;52.064;113.478;2023-03-11T08:29:44;9.45;;;2.63;;
70414;SDS011;57837;52.064;113.478;2023-03-11T08:32:48;10.05;;;3.10;;
70414;SDS011;57837;52.064;113.478;2023-03-11T08:35:52;5.47;;;2.70;;
70414;SDS011;57837;52.064;113.478;2023-03-11T08:38:56;5.85;;;2.95;;
70414;SDS011;57837;52.064;113.478;2023-03-11T08:42:00;11.52;;;4.65;;
70414;SDS011;57837;52.064;113.478;2023-03-11T08:45:05;8.18;;;2.97;;
70414;SDS011;57837;52.064;113.478;2023-03-11T08:48:10;10.07;;;2.40;;
70414;SDS011;57837;52.064;113.478;2023-03-11T08:51:13;15.85;;;2.85;;
70414;SDS011;57837;52.064;113.478;2023-03-11T08:54:16;12.68;;;2.97;;
70414;SDS011;57837;52.064;113.478;2023-03-11T08:57:20;4.22;;;2.05;;
70414;SDS011;57837;52.064;113.478;2023-03-11T09:00:23;10.13;;;3.20;;
70414;SDS011;57837;52.064;113.478;2023-03-11T09:03:29;3.30;;;1.90;;
70414;SDS011;57837;52.064;113.478;2023-03-11T09:06:34;7.70;;;2.20;;
70414;SDS011;57837;52.064;113.478;2023-03-11T09:09:38;4.65;;;2.28;;
70414;SDS011;57837;52.064;113.478;2023-03-11T09:12:41;6.03;;;2.92;;
70414;SDS011;57837;52.064;113.478;2023-03-11T09:15:46;12.82;;;3.97;;
70414;SDS011;57837;52.064;113.478;2023-03-11T09:18:51;5.35;;;2.13;;
70414;SDS011;57837;52.064;113.478;2023-03-11T09:21:55;5.97;;;2.15;;
70414;SDS011;57837;52.064;113.478;2023-03-11T09:24:58;9.90;;;3.90;;
70414;SDS011;57837;52.064;113.478;2023-03-11T09:28:00;11.10;;;2.50;;
70414;SDS011;57837;52.064;113.478;2023-03-11T09:31:03;6.10;;;2.70;;
70414;SDS011;57837;52.064;113.478;2023-03-11T09:34:07;7.35;;;2.80;;
70414;SDS011;57837;52.064;113.478;2023-03-11T09:37:13;7.77;;;3.53;;
70414;SDS011;57837;52.064;113.478;2023-03-11T09:40:20;7.60;;;2.28;;
70414;SDS011;57837;52.064;113.478;2023-03-11T09:43:41;9.05;;;2.92;;
70414;SDS011;57837;52.064;113.478;2023-03-11T09:50:34;8.70;;;2.50;;
70414;SDS011;57837;52.064;113.478;2023-03-11T09:53:46;14.23;;;3.03;;
70414;SDS011;57837;52.064;113.478;2023-03-11T09:56:58;17.73;;;2.70;;
70414;SDS011;57837;52.064;113.478;2023-03-11T10:00:04;7.85;;;2.38;;
70414;SDS011;57837;52.064;113.478;2023-03-11T10:03:25;6.63;;;2.07;;
70414;SDS011;57837;52.064;113.478;2023-03-11T10:06:33;7.72;;;3.22;;
70414;SDS011;57837;52.064;113.478;2023-03-11T10:09:43;9.73;;;3.70;;
70414;SDS011;57837;52.064;113.478;2023-03-11T10:12:58;11.75;;;3.63;;
70414;SDS011;57837;52.064;113.478;2023-03-11T10:16:16;11.30;;;3.70;;
70414;SDS011;57837;52.064;113.478;2023-03-11T10:19:28;8.25;;;3.22;;
70414;SDS011;57837;52.064;113.478;2023-03-11T10:22:46;5.25;;;2.75;;
70414;SDS011;57837;52.064;113.478;2023-03-11T10:29:25;14.40;;;3.88;;
70414;SDS011;57837;52.064;113.478;2023-03-11T10:35:44;12.67;;;3.50;;
70414;SDS011;57837;52.064;113.478;2023-03-11T10:38:51;13.43;;;4.35;;
70414;SDS011;57837;52.064;113.478;2023-03-11T10:41:58;9.32;;;3.20;;
70414;SDS011;57837;52.064;113.478;2023-03-11T10:45:04;15.13;;;5.25;;
70414;SDS011;57837;52.064;113.478;2023-03-11T10:48:15;25.38;;;7.15;;
70414;SDS011;57837;52.064;113.478;2023-03-11T10:51:39;19.52;;;6.45;;
70414;SDS011;57837;52.064;113.478;2023-03-11T10:54:45;16.73;;;6.93;;
70414;SDS011;57837;52.064;113.478;2023-03-11T10:58:04;19.20;;;6.23;;
70414;SDS011;57837;52.064;113.478;2023-03-11T11:04:22;25.55;;;7.18;;
70414;SDS011;57837;52.064;113.478;2023-03-11T11:07:38;19.00;;;5.40;;
70414;SDS011;57837;52.064;113.478;2023-03-11T11:10:50;21.10;;;6.53;;
70414;SDS011;57837;52.064;113.478;2023-03-11T11:14:02;18.10;;;6.85;;
70414;SDS011;57837;52.064;113.478;2023-03-11T11:17:05;15.85;;;6.55;;
70414;SDS011;57837;52.064;113.478;2023-03-11T11:20:18;21.25;;;6.38;;
70414;SDS011;57837;52.064;113.478;2023-03-11T11:30:24;22.47;;;5.13;;
70414;SDS011;57837;52.064;113.478;2023-03-11T11:33:31;15.60;;;2.70;;
70414;SDS011;57837;52.064;113.478;2023-03-11T11:36:55;14.63;;;3.97;;
70414;SDS011;57837;52.064;113.478;2023-03-11T11:43:19;12.38;;;4.07;;
70414;SDS011;57837;52.064;113.478;2023-03-11T11:46:33;7.05;;;3.28;;
70414;SDS011;57837;52.064;113.478;2023-03-11T11:50:02;11.57;;;4.25;;
70414;SDS011;57837;52.064;113.478;2023-03-11T11:56:32;16.65;;;4.93;;
70414;SDS011;57837;52.064;113.478;2023-03-11T11:59:35;11.00;;;3.53;;
70414;SDS011;57837;52.064;113.478;2023-03-11T12:05:58;13.20;;;3.40;;
70414;SDS011;57837;52.064;113.478;2023-03-11T12:12:30;10.17;;;3.57;;
70414;SDS011;57837;52.064;113.478;2023-03-11T12:15:58;9.00;;;2.20;;
70414;SDS011;57837;52.064;113.478;2023-03-11T12:32:29;8.48;;;2.15;;
70414;SDS011;57837;52.064;113.478;2023-03-11T12:35:48;7.63;;;1.57;;
70414;SDS011;57837;52.064;113.478;2023-03-11T12:38:57;6.20;;;1.60;;
70414;SDS011;57837;52.064;113.478;2023-03-11T12:42:19;1.52;;;0.85;;
70414;SDS011;57837;52.064;113.478;2023-03-11T12:49:11;3.33;;;1.73;;
70414;SDS011;57837;52.064;113.478;2023-03-11T12:52:16;44.83;;;3.88;;
70414;SDS011;57837;52.064;113.478;2023-03-11T12:55:29;5.00;;;2.83;;
70414;SDS011;57837;52.064;113.478;2023-03-11T13:08:48;7.40;;;1.73;;
70414;SDS011;57837;52.064;113.478;2023-03-11T13:11:53;6.15;;;2.22;;
70414;SDS011;57837;52.064;113.478;2023-03-11T13:15:15;6.05;;;2.53;;
70414;SDS011;57837;52.064;113.478;2023-03-11T13:18:28;5.27;;;2.33;;
70414;SDS011;57837;52.064;113.478;2023-03-11T13:21:37;8.13;;;3.15;;
70414;SDS011;57837;52.064;113.478;2023-03-11T13:24:47;8.52;;;3.88;;
70414;SDS011;57837;52.064;113.478;2023-03-11T13:27:51;11.20;;;2.53;;
70414;SDS011;57837;52.064;113.478;2023-03-11T13:38:15;5.20;;;1.13;;
70414;SDS011;57837;52.064;113.478;2023-03-11T13:41:39;10.37;;;2.83;;
70414;SDS011;57837;52.064;113.478;2023-03-11T13:44:45;6.30;;;2.22;;
70414;SDS011;57837;52.064;113.478;2023-03-11T13:47:50;8.00;;;2.40;;
70414;SDS011;57837;52.064;113.478;2023-03-11T13:51:03;7.23;;;1.63;;
70414;SDS011;57837;52.064;113.478;2023-03-11T13:57:32;9.13;;;2.75;;
70414;SDS011;57837;52.064;113.478;2023-03-11T14:00:38;6.07;;;2.53;;
70414;SDS011;57837;52.064;113.478;2023-03-11T14:03:51;5.97;;;1.70;;
70414;SDS011;57837;52.064;113.478;2023-03-11T14:06:56;24.30;;;2.97;;
70414;SDS011;57837;52.064;113.478;2023-03-11T14:13:31;8.43;;;1.80;;
70414;SDS011;57837;52.064;113.478;2023-03-11T14:16:40;5.05;;;2.05;;
70414;SDS011;57837;52.064;113.478;2023-03-11T14:23:10;14.23;;;4.37;;
70414;SDS011;57837;52.064;113.478;2023-03-11T14:26:25;8.82;;;2.47;;
70414;SDS011;57837;52.064;113.478;2023-03-11T14:29:35;6.53;;;2.33;;
70414;SDS011;57837;52.064;113.478;2023-03-11T14:32:41;6.13;;;1.45;;
70414;SDS011;57837;52.064;113.478;2023-03-11T14:35:51;11.23;;;2.58;;
70414;SDS011;57837;52.064;113.478;2023-03-11T14:38:56;6.93;;;3.03;;
70414;SDS011;57837;52.064;113.478;2023-03-11T14:42:10;8.05;;;2.35;;
70414;SDS011;57837;52.064;113.478;2023-03-11T14:45:35;12.27;;;2.67;;
70414;SDS011;57837;52.064;113.478;2023-03-11T14:48:40;4.63;;;2.35;;
70414;SDS011;57837;52.064;113.478;2023-03-11T14:51:48;4.28;;;2.25;;
70414;SDS011;57837;52.064;113.478;2023-03-11T14:54:59;7.27;;;3.17;;
70414;SDS011;57837;52.064;113.478;2023-03-11T15:01:19;20.38;;;4.38;;
70414;SDS011;57837;52.064;113.478;2023-03-11T15:07:35;11.07;;;4.72;;
70414;SDS011;57837;52.064;113.478;2023-03-11T15:10:46;16.13;;;4.82;;
70414;SDS011;57837;52.064;113.478;2023-03-11T15:14:16;7.22;;;3.70;;
70414;SDS011;57837;52.064;113.478;2023-03-11T15:17:26;9.33;;;3.97;;
70414;SDS011;57837;52.064;113.478;2023-03-11T15:20:44;1.48;;;0.90;;
70414;SDS011;57837;52.064;113.478;2023-03-11T15:24:02;7.32;;;1.92;;
70414;SDS011;57837;52.064;113.478;2023-03-11T15:27:17;10.33;;;2.60;;
70414;SDS011;57837;52.064;113.478;2023-03-11T15:30:34;11.23;;;4.40;;
70414;SDS011;57837;52.064;113.478;2023-03-11T15:33:38;17.00;;;5.57;;
70414;SDS011;57837;52.064;113.478;2023-03-11T15:39:51;18.67;;;5.72;;
70414;SDS011;57837;52.064;113.478;2023-03-11T15:46:15;21.33;;;4.75;;
70414;SDS011;57837;52.064;113.478;2023-03-11T15:49:18;27.13;;;7.77;;
70414;SDS011;57837;52.064;113.478;2023-03-11T15:52:22;16.55;;;6.90;;
70414;SDS011;57837;52.064;113.478;2023-03-11T15:55:26;21.40;;;7.10;;
70414;SDS011;57837;52.064;113.478;2023-03-11T15:58:29;23.27;;;6.63;;
70414;SDS011;57837;52.064;113.478;2023-03-11T16:01:33;20.77;;;6.97;;
70414;SDS011;57837;52.064;113.478;2023-03-11T16:04:37;10.35;;;4.10;;
70414;SDS011;57837;52.064;113.478;2023-03-11T16:07:40;3.30;;;1.80;;
70414;SDS011;57837;52.064;113.478;2023-03-11T16:10:43;13.95;;;4.95;;
70414;SDS011;57837;52.064;113.478;2023-03-11T16:13:46;18.45;;;5.05;;
70414;SDS011;57837;52.064;113.478;2023-03-11T16:16:49;17.10;;;4.78;;
70414;SDS011;57837;52.064;113.478;2023-03-11T16:19:52;2.93;;;1.80;;
70414;SDS011;57837;52.064;113.478;2023-03-11T16:22:56;2.03;;;1.17;;
70414;SDS011;57837;52.064;113.478;2023-03-11T16:26:01;16.27;;;6.32;;
70414;SDS011;57837;52.064;113.478;2023-03-11T16:29:06;16.00;;;5.10;;
70414;SDS011;57837;52.064;113.478;2023-03-11T16:32:20;13.27;;;2.70;;
70414;SDS011;57837;52.064;113.478;2023-03-11T16:35:23;12.18;;;4.13;;
70414;SDS011;57837;52.064;113.478;2023-03-11T16:38:28;14.20;;;5.75;;
70414;SDS011;57837;52.064;113.478;2023-03-11T16:41:39;22.58;;;5.38;;
70414;SDS011;57837;52.064;113.478;2023-03-11T16:44:43;11.82;;;4.88;;
70414;SDS011;57837;52.064;113.478;2023-03-11T16:47:46;13.57;;;3.33;;
70414;SDS011;57837;52.064;113.478;2023-03-11T16:50:49;19.10;;;4.33;;
70414;SDS011;57837;52.064;113.478;2023-03-11T16:53:52;10.27;;;3.55;;
70414;SDS011;57837;52.064;113.478;2023-03-11T16:56:56;13.85;;;5.75;;
70414;SDS011;57837;52.064;113.478;2023-03-11T16:59:59;16.07;;;4.60;;
70414;SDS011;57837;52.064;113.478;2023-03-11T17:03:03;15.70;;;3.78;;
70414;SDS011;57837;52.064;113.478;2023-03-11T17:06:07;9.27;;;3.40;;
70414;SDS011;57837;52.064;113.478;2023-03-11T17:09:10;25.17;;;9.18;;
70414;SDS011;57837;52.064;113.478;2023-03-11T17:12:13;3.83;;;1.52;;
70414;SDS011;57837;52.064;113.478;2023-03-11T17:15:20;17.35;;;8.52;;
70414;SDS011;57837;52.064;113.478;2023-03-11T17:18:23;23.65;;;7.32;;
70414;SDS011;57837;52.064;113.478;2023-03-11T17:21:27;24.87;;;6.23;;
70414;SDS011;57837;52.064;113.478;2023-03-11T17:24:30;9.57;;;4.43;;
70414;SDS011;57837;52.064;113.478;2023-03-11T17:27:34;33.53;;;10.07;;
70414;SDS011;57837;52.064;113.478;2023-03-11T17:30:41;19.47;;;9.73;;
70414;SDS011;57837;52.064;113.478;2023-03-11T17:33:45;48.53;;;9.50;;
70414;SDS011;57837;52.064;113.478;2023-03-11T17:36:50;33.47;;;10.85;;
70414;SDS011;57837;52.064;113.478;2023-03-11T17:39:53;16.88;;;6.82;;
70414;SDS011;57837;52.064;113.478;2023-03-11T17:42:56;28.30;;;8.43;;
70414;SDS011;57837;52.064;113.478;2023-03-11T17:45:59;26.00;;;10.02;;
70414;SDS011;57837;52.064;113.478;2023-03-11T17:49:02;37.40;;;11.57;;
70414;SDS011;57837;52.064;113.478;2023-03-11T17:52:05;13.33;;;6.27;;
70414;SDS011;57837;52.064;113.478;2023-03-11T17:55:09;6.90;;;5.13;;
70414;SDS011;57837;52.064;113.478;2023-03-11T17:58:12;15.25;;;5.05;;
70414;SDS011;57837;52.064;113.478;2023-03-11T18:01:16;16.17;;;7.10;;
70414;SDS011;57837;52.064;113.478;2023-03-11T18:04:25;23.77;;;6.28;;
70414;SDS011;57837;52.064;113.478;2023-03-11T18:07:29;17.63;;;6.15;;
70414;SDS011;57837;52.064;113.478;2023-03-11T18:10:32;7.13;;;2.85;;
70414;SDS011;57837;52.064;113.478;2023-03-11T18:13:36;7.68;;;2.33;;
70414;SDS011;57837;52.064;113.478;2023-03-11T18:16:41;8.45;;;3.05;;
70414;SDS011;57837;52.064;113.478;2023-03-11T18:19:44;12.25;;;4.45;;
70414;SDS011;57837;52.064;113.478;2023-03-11T18:22:48;9.60;;;3.93;;
70414;SDS011;57837;52.064;113.478;2023-03-11T18:25:51;7.40;;;2.45;;
70414;SDS011;57837;52.064;113.478;2023-03-11T18:28:55;12.88;;;3.58;;
70414;SDS011;57837;52.064;113.478;2023-03-11T18:31:59;6.53;;;2.57;;
70414;SDS011;57837;52.064;113.478;2023-03-11T18:35:04;7.72;;;3.05;;
70414;SDS011;57837;52.064;113.478;2023-03-11T18:38:07;8.63;;;2.72;;
70414;SDS011;57837;52.064;113.478;2023-03-11T18:41:12;8.85;;;3.10;;
70414;SDS011;57837;52.064;113.478;2023-03-11T18:44:17;1.42;;;1.00;;
70414;SDS011;57837;52.064;113.478;2023-03-11T18:47:21;10.98;;;2.72;;
70414;SDS011;57837;52.064;113.478;2023-03-11T18:50:24;6.57;;;3.20;;
70414;SDS011;57837;52.064;113.478;2023-03-11T18:53:27;5.93;;;2.43;;
70414;SDS011;57837;52.064;113.478;2023-03-11T18:56:30;6.57;;;3.50;;
70414;SDS011;57837;52.064;113.478;2023-03-11T18:59:33;2.00;;;1.48;;
70414;SDS011;57837;52.064;113.478;2023-03-11T19:02:37;5.17;;;3.60;;
70414;SDS011;57837;52.064;113.478;2023-03-11T19:05:47;2.85;;;0.80;;
70414;SDS011;57837;52.064;113.478;2023-03-11T19:08:51;7.72;;;3.78;;
70414;SDS011;57837;52.064;113.478;2023-03-11T19:11:55;12.35;;;3.42;;
70414;SDS011;57837;52.064;113.478;2023-03-11T19:14:59;9.90;;;3.83;;
70414;SDS011;57837;52.064;113.478;2023-03-11T19:18:03;11.77;;;3.90;;
70414;SDS011;57837;52.064;113.478;2023-03-11T19:21:09;11.60;;;2.33;;
70414;SDS011;57837;52.064;113.478;2023-03-11T19:24:13;9.07;;;1.83;;
70414;SDS011;57837;52.064;113.478;2023-03-11T19:27:16;5.97;;;1.67;;
70414;SDS011;57837;52.064;113.478;2023-03-11T19:30:20;2.38;;;1.58;;
70414;SDS011;57837;52.064;113.478;2023-03-11T19:33:24;3.37;;;1.50;;
70414;SDS011;57837;52.064;113.478;2023-03-11T19:36:29;9.57;;;2.58;;
70414;SDS011;57837;52.064;113.478;2023-03-11T19:39:31;5.05;;;2.05;;